sensor_id;sensor_type;location;lat;lon;timestamp;temperature;humidity
7792;DHT22;3940;49.892;10.886;2022-10-16T00:00:09;15.40;99.90
7792;DHT22;3940;49.892;10.886;2022-10-16T00:02:54;15.40;99.90
7792;DHT22;3940;49.892;10.886;2022-10-16T00:05:41;15.40;99.90
7792;DHT22;3940;49.892;10.886;2022-10-16T00:08:26;15.40;99.90
7792;DHT22;3940;49.892;10.886;2022-10-16T00:11:15;15.40;99.90
7792;DHT22;3940;49.892;10.886;2022-10-16T00:14:01;15.40;99.90
7792;DHT22;3940;49.892;10.886;2022-10-16T00:16:45;15.30;99.90
7792;DHT22;3940;49.892;10.886;2022-10-16T00:19:29;15.40;99.90
7792;DHT22;3940;49.892;10.886;2022-10-16T00:22:13;15.40;99.90
7792;DHT22;3940;49.892;10.886;2022-10-16T00:24:57;15.40;99.90
7792;DHT22;3940;49.892;10.886;2022-10-16T00:27:42;15.30;99.90
7792;DHT22;3940;49.892;10.886;2022-10-16T00:30:26;15.30;99.90
7792;DHT22;3940;49.892;10.886;2022-10-16T00:33:11;15.20;99.90
7792;DHT22;3940;49.892;10.886;2022-10-16T00:35:58;15.30;99.90
7792;DHT22;3940;49.892;10.886;2022-10-16T00:38:42;15.20;99.90
7792;DHT22;3940;49.892;10.886;2022-10-16T00:41:28;15.20;99.90
7792;DHT22;3940;49.892;10.886;2022-10-16T00:44:42;15.20;99.90
7792;DHT22;3940;49.892;10.886;2022-10-16T00:47:32;15.20;99.90
7792;DHT22;3940;49.892;10.886;2022-10-16T00:50:30;15.20;99.90
7792;DHT22;3940;49.892;10.886;2022-10-16T00:53:16;15.10;99.90
7792;DHT22;3940;49.892;10.886;2022-10-16T00:56:02;15.20;99.90
7792;DHT22;3940;49.892;10.886;2022-10-16T00:58:46;15.10;99.90
7792;DHT22;3940;49.892;10.886;2022-10-16T01:01:31;15.10;99.90
7792;DHT22;3940;49.892;10.886;2022-10-16T01:04:15;15.10;99.90
7792;DHT22;3940;49.892;10.886;2022-10-16T01:07:16;15.10;99.90
7792;DHT22;3940;49.892;10.886;2022-10-16T01:10:17;15.20;99.90
7792;DHT22;3940;49.892;10.886;2022-10-16T01:13:09;15.20;99.90
7792;DHT22;3940;49.892;10.886;2022-10-16T01:16:07;15.20;99.90
7792;DHT22;3940;49.892;10.886;2022-10-16T01:19:00;15.20;99.90
7792;DHT22;3940;49.892;10.886;2022-10-16T01:21:48;15.20;99.90
7792;DHT22;3940;49.892;10.886;2022-10-16T01:24:40;15.20;99.90
7792;DHT22;3940;49.892;10.886;2022-10-16T01:27:28;15.20;99.90
7792;DHT22;3940;49.892;10.886;2022-10-16T01:30:23;15.20;99.90
7792;DHT22;3940;49.892;10.886;2022-10-16T01:33:16;15.20;99.90
7792;DHT22;3940;49.892;10.886;2022-10-16T01:36:10;15.20;99.90
7792;DHT22;3940;49.892;10.886;2022-10-16T01:38:57;15.20;99.90
7792;DHT22;3940;49.892;10.886;2022-10-16T01:41:48;15.20;99.90
7792;DHT22;3940;49.892;10.886;2022-10-16T01:44:36;15.10;99.90
7792;DHT22;3940;49.892;10.886;2022-10-16T01:47:23;15.20;99.90
7792;DHT22;3940;49.892;10.886;2022-10-16T01:50:09;15.20;99.90
7792;DHT22;3940;49.892;10.886;2022-10-16T01:52:55;15.20;99.90
7792;DHT22;3940;49.892;10.886;2022-10-16T01:55:43;15.30;99.90
7792;DHT22;3940;49.892;10.886;2022-10-16T01:58:30;15.40;99.90
7792;DHT22;3940;49.892;10.886;2022-10-16T02:01:22;15.30;99.90
7792;DHT22;3940;49.892;10.886;2022-10-16T02:04:14;15.40;99.90
7792;DHT22;3940;49.892;10.886;2022-10-16T02:07:00;15.30;99.90
7792;DHT22;3940;49.892;10.886;2022-10-16T02:09:44;15.40;99.90
7792;DHT22;3940;49.892;10.886;2022-10-16T02:12:32;15.40;99.90
7792;DHT22;3940;49.892;10.886;2022-10-16T02:15:16;15.30;99.90
7792;DHT22;3940;49.892;10.886;2022-10-16T02:18:03;15.30;99.90
7792;DHT22;3940;49.892;10.886;2022-10-16T02:21:17;15.30;99.90
7792;DHT22;3940;49.892;10.886;2022-10-16T02:24:22;15.30;99.90
7792;DHT22;3940;49.892;10.886;2022-10-16T02:27:13;15.20;99.90
7792;DHT22;3940;49.892;10.886;2022-10-16T02:30:07;15.30;99.90
7792;DHT22;3940;49.892;10.886;2022-10-16T02:32:53;15.20;99.90
7792;DHT22;3940;49.892;10.886;2022-10-16T02:35:40;15.20;99.90
7792;DHT22;3940;49.892;10.886;2022-10-16T02:38:25;15.20;99.90
7792;DHT22;3940;49.892;10.886;2022-10-16T02:41:10;15.20;99.90
7792;DHT22;3940;49.892;10.886;2022-10-16T02:43:54;15.20;99.90
7792;DHT22;3940;49.892;10.886;2022-10-16T02:46:39;15.20;99.90
7792;DHT22;3940;49.892;10.886;2022-10-16T02:49:23;15.20;99.90
7792;DHT22;3940;49.892;10.886;2022-10-16T02:52:07;15.20;99.90
7792;DHT22;3940;49.892;10.886;2022-10-16T02:54:51;15.20;99.90
7792;DHT22;3940;49.892;10.886;2022-10-16T02:57:35;15.30;99.90
7792;DHT22;3940;49.892;10.886;2022-10-16T03:00:21;15.30;99.90
7792;DHT22;3940;49.892;10.886;2022-10-16T03:03:05;15.30;99.90
7792;DHT22;3940;49.892;10.886;2022-10-16T03:05:50;15.30;99.90
7792;DHT22;3940;49.892;10.886;2022-10-16T03:08:34;15.30;99.90
7792;DHT22;3940;49.892;10.886;2022-10-16T03:11:18;15.40;99.90
7792;DHT22;3940;49.892;10.886;2022-10-16T03:14:02;15.30;99.90
7792;DHT22;3940;49.892;10.886;2022-10-16T03:16:46;15.30;99.90
7792;DHT22;3940;49.892;10.886;2022-10-16T03:19:30;15.40;99.90
7792;DHT22;3940;49.892;10.886;2022-10-16T03:22:14;15.30;99.90
7792;DHT22;3940;49.892;10.886;2022-10-16T03:24:59;15.40;99.90
7792;DHT22;3940;49.892;10.886;2022-10-16T03:27:43;15.40;99.90
7792;DHT22;3940;49.892;10.886;2022-10-16T03:30:27;15.40;99.90
7792;DHT22;3940;49.892;10.886;2022-10-16T03:33:12;15.50;99.90
7792;DHT22;3940;49.892;10.886;2022-10-16T03:35:56;15.40;99.90
7792;DHT22;3940;49.892;10.886;2022-10-16T03:38:40;15.40;99.90
7792;DHT22;3940;49.892;10.886;2022-10-16T03:41:24;15.40;99.90
7792;DHT22;3940;49.892;10.886;2022-10-16T03:44:08;15.40;99.90
7792;DHT22;3940;49.892;10.886;2022-10-16T03:46:53;15.40;99.90
7792;DHT22;3940;49.892;10.886;2022-10-16T03:49:37;15.50;99.90
7792;DHT22;3940;49.892;10.886;2022-10-16T03:52:21;15.40;99.90
7792;DHT22;3940;49.892;10.886;2022-10-16T03:55:06;15.40;99.90
7792;DHT22;3940;49.892;10.886;2022-10-16T03:57:50;15.40;99.90
7792;DHT22;3940;49.892;10.886;2022-10-16T04:00:35;15.40;99.90
7792;DHT22;3940;49.892;10.886;2022-10-16T04:03:19;15.50;99.90
7792;DHT22;3940;49.892;10.886;2022-10-16T04:06:03;15.50;99.90
7792;DHT22;3940;49.892;10.886;2022-10-16T04:08:47;15.50;99.90
7792;DHT22;3940;49.892;10.886;2022-10-16T04:11:31;15.40;99.90
7792;DHT22;3940;49.892;10.886;2022-10-16T04:14:15;15.40;99.90
7792;DHT22;3940;49.892;10.886;2022-10-16T04:16:59;15.40;99.90
7792;DHT22;3940;49.892;10.886;2022-10-16T04:19:43;15.40;99.90
7792;DHT22;3940;49.892;10.886;2022-10-16T04:22:28;15.40;99.90
7792;DHT22;3940;49.892;10.886;2022-10-16T04:25:12;15.30;99.90
7792;DHT22;3940;49.892;10.886;2022-10-16T04:27:58;15.40;99.90
7792;DHT22;3940;49.892;10.886;2022-10-16T04:30:42;15.30;99.90
7792;DHT22;3940;49.892;10.886;2022-10-16T04:33:27;15.30;99.90
7792;DHT22;3940;49.892;10.886;2022-10-16T04:36:11;15.30;99.90
7792;DHT22;3940;49.892;10.886;2022-10-16T04:38:55;15.40;99.90
7792;DHT22;3940;49.892;10.886;2022-10-16T04:41:39;15.40;99.90
7792;DHT22;3940;49.892;10.886;2022-10-16T04:44:23;15.40;99.90
7792;DHT22;3940;49.892;10.886;2022-10-16T04:47:08;15.40;99.90
7792;DHT22;3940;49.892;10.886;2022-10-16T04:49:52;15.40;99.90
7792;DHT22;3940;49.892;10.886;2022-10-16T04:52:36;15.30;99.90
7792;DHT22;3940;49.892;10.886;2022-10-16T04:55:21;15.30;99.90
7792;DHT22;3940;49.892;10.886;2022-10-16T04:58:05;15.40;99.90
7792;DHT22;3940;49.892;10.886;2022-10-16T05:00:49;15.40;99.90
7792;DHT22;3940;49.892;10.886;2022-10-16T05:03:33;15.40;99.90
7792;DHT22;3940;49.892;10.886;2022-10-16T05:06:18;15.30;99.90
7792;DHT22;3940;49.892;10.886;2022-10-16T05:09:02;15.30;99.90
7792;DHT22;3940;49.892;10.886;2022-10-16T05:11:47;15.30;99.90
7792;DHT22;3940;49.892;10.886;2022-10-16T05:14:31;15.30;99.90
7792;DHT22;3940;49.892;10.886;2022-10-16T05:17:15;15.30;99.90
7792;DHT22;3940;49.892;10.886;2022-10-16T05:19:59;15.30;99.90
7792;DHT22;3940;49.892;10.886;2022-10-16T05:22:43;15.30;99.90
7792;DHT22;3940;49.892;10.886;2022-10-16T05:25:28;15.30;99.90
7792;DHT22;3940;49.892;10.886;2022-10-16T05:28:12;15.30;99.90
7792;DHT22;3940;49.892;10.886;2022-10-16T05:30:56;15.30;99.90
7792;DHT22;3940;49.892;10.886;2022-10-16T05:33:41;15.40;99.90
7792;DHT22;3940;49.892;10.886;2022-10-16T05:36:26;15.30;99.90
7792;DHT22;3940;49.892;10.886;2022-10-16T05:39:11;15.30;99.90
7792;DHT22;3940;49.892;10.886;2022-10-16T05:41:55;15.30;99.90
7792;DHT22;3940;49.892;10.886;2022-10-16T05:44:39;15.40;99.90
7792;DHT22;3940;49.892;10.886;2022-10-16T05:47:24;15.40;99.90
7792;DHT22;3940;49.892;10.886;2022-10-16T05:50:08;15.30;99.90
7792;DHT22;3940;49.892;10.886;2022-10-16T05:52:53;15.30;99.90
7792;DHT22;3940;49.892;10.886;2022-10-16T05:55:37;15.30;99.90
7792;DHT22;3940;49.892;10.886;2022-10-16T05:58:22;15.30;99.90
7792;DHT22;3940;49.892;10.886;2022-10-16T06:01:11;15.30;99.90
7792;DHT22;3940;49.892;10.886;2022-10-16T06:03:56;15.40;99.90
7792;DHT22;3940;49.892;10.886;2022-10-16T06:06:40;15.40;99.90
7792;DHT22;3940;49.892;10.886;2022-10-16T06:09:24;15.30;99.90
7792;DHT22;3940;49.892;10.886;2022-10-16T06:12:08;15.40;99.90
7792;DHT22;3940;49.892;10.886;2022-10-16T06:14:53;15.40;99.90
7792;DHT22;3940;49.892;10.886;2022-10-16T06:17:37;15.40;99.90
7792;DHT22;3940;49.892;10.886;2022-10-16T06:20:21;15.40;99.90
7792;DHT22;3940;49.892;10.886;2022-10-16T06:23:05;15.40;99.90
7792;DHT22;3940;49.892;10.886;2022-10-16T06:25:49;15.40;99.90
7792;DHT22;3940;49.892;10.886;2022-10-16T06:28:33;15.40;99.90
7792;DHT22;3940;49.892;10.886;2022-10-16T06:31:18;15.40;99.90
7792;DHT22;3940;49.892;10.886;2022-10-16T06:34:02;15.40;99.90
7792;DHT22;3940;49.892;10.886;2022-10-16T06:36:48;15.30;99.90
7792;DHT22;3940;49.892;10.886;2022-10-16T06:39:32;15.40;99.90
7792;DHT22;3940;49.892;10.886;2022-10-16T06:42:17;15.40;99.90
7792;DHT22;3940;49.892;10.886;2022-10-16T06:45:00;15.40;99.90
7792;DHT22;3940;49.892;10.886;2022-10-16T06:47:45;15.40;99.90
7792;DHT22;3940;49.892;10.886;2022-10-16T06:50:29;15.50;99.90
7792;DHT22;3940;49.892;10.886;2022-10-16T06:53:13;15.50;99.90
7792;DHT22;3940;49.892;10.886;2022-10-16T06:55:57;15.50;99.90
7792;DHT22;3940;49.892;10.886;2022-10-16T06:58:42;15.50;99.90
7792;DHT22;3940;49.892;10.886;2022-10-16T07:01:27;15.50;99.90
7792;DHT22;3940;49.892;10.886;2022-10-16T07:04:11;15.60;99.90
7792;DHT22;3940;49.892;10.886;2022-10-16T07:06:56;15.60;99.90
7792;DHT22;3940;49.892;10.886;2022-10-16T07:09:40;15.60;99.90
7792;DHT22;3940;49.892;10.886;2022-10-16T07:12:24;15.60;99.90
7792;DHT22;3940;49.892;10.886;2022-10-16T07:15:09;15.50;99.90
7792;DHT22;3940;49.892;10.886;2022-10-16T07:17:53;15.50;99.90
7792;DHT22;3940;49.892;10.886;2022-10-16T07:20:38;15.50;99.90
7792;DHT22;3940;49.892;10.886;2022-10-16T07:23:22;15.50;99.90
7792;DHT22;3940;49.892;10.886;2022-10-16T07:26:07;15.50;99.90
7792;DHT22;3940;49.892;10.886;2022-10-16T07:28:52;15.50;99.90
7792;DHT22;3940;49.892;10.886;2022-10-16T07:31:36;15.60;99.90
7792;DHT22;3940;49.892;10.886;2022-10-16T07:34:22;15.60;99.90
7792;DHT22;3940;49.892;10.886;2022-10-16T07:37:06;15.70;99.90
7792;DHT22;3940;49.892;10.886;2022-10-16T07:39:50;15.70;99.90
7792;DHT22;3940;49.892;10.886;2022-10-16T07:42:34;15.70;99.90
7792;DHT22;3940;49.892;10.886;2022-10-16T07:45:18;15.80;99.90
7792;DHT22;3940;49.892;10.886;2022-10-16T07:48:03;15.80;99.90
7792;DHT22;3940;49.892;10.886;2022-10-16T07:50:47;15.90;99.90
7792;DHT22;3940;49.892;10.886;2022-10-16T07:53:32;15.90;99.90
7792;DHT22;3940;49.892;10.886;2022-10-16T07:56:18;16.00;99.90
7792;DHT22;3940;49.892;10.886;2022-10-16T07:59:05;16.00;99.90
7792;DHT22;3940;49.892;10.886;2022-10-16T08:01:50;16.00;99.90
7792;DHT22;3940;49.892;10.886;2022-10-16T08:04:34;16.10;99.90
7792;DHT22;3940;49.892;10.886;2022-10-16T08:07:18;16.10;99.90
7792;DHT22;3940;49.892;10.886;2022-10-16T08:10:02;16.20;99.90
7792;DHT22;3940;49.892;10.886;2022-10-16T08:12:46;16.20;99.90
7792;DHT22;3940;49.892;10.886;2022-10-16T08:15:31;16.20;99.90
7792;DHT22;3940;49.892;10.886;2022-10-16T08:18:15;16.20;99.90
7792;DHT22;3940;49.892;10.886;2022-10-16T08:21:00;16.30;99.90
7792;DHT22;3940;49.892;10.886;2022-10-16T08:23:44;16.50;99.90
7792;DHT22;3940;49.892;10.886;2022-10-16T08:26:28;16.60;99.90
7792;DHT22;3940;49.892;10.886;2022-10-16T08:29:14;16.80;99.90
7792;DHT22;3940;49.892;10.886;2022-10-16T08:31:58;16.80;99.90
7792;DHT22;3940;49.892;10.886;2022-10-16T08:34:42;16.80;99.90
7792;DHT22;3940;49.892;10.886;2022-10-16T08:37:30;16.70;99.90
7792;DHT22;3940;49.892;10.886;2022-10-16T08:40:20;16.70;99.90
7792;DHT22;3940;49.892;10.886;2022-10-16T08:43:19;16.70;99.90
7792;DHT22;3940;49.892;10.886;2022-10-16T08:49:19;16.70;99.90
7792;DHT22;3940;49.892;10.886;2022-10-16T08:52:03;16.80;99.90
7792;DHT22;3940;49.892;10.886;2022-10-16T08:54:51;16.80;99.90
7792;DHT22;3940;49.892;10.886;2022-10-16T08:57:37;16.80;99.90
7792;DHT22;3940;49.892;10.886;2022-10-16T09:00:21;16.80;99.90
7792;DHT22;3940;49.892;10.886;2022-10-16T09:03:17;16.90;99.90
7792;DHT22;3940;49.892;10.886;2022-10-16T09:06:15;17.00;99.90
7792;DHT22;3940;49.892;10.886;2022-10-16T09:09:32;17.10;99.90
7792;DHT22;3940;49.892;10.886;2022-10-16T09:12:26;17.20;99.90
7792;DHT22;3940;49.892;10.886;2022-10-16T09:15:33;17.10;99.90
7792;DHT22;3940;49.892;10.886;2022-10-16T09:18:27;17.10;99.90
7792;DHT22;3940;49.892;10.886;2022-10-16T09:21:21;17.10;99.90
7792;DHT22;3940;49.892;10.886;2022-10-16T09:24:12;17.10;99.90
7792;DHT22;3940;49.892;10.886;2022-10-16T09:26:57;17.10;99.90
7792;DHT22;3940;49.892;10.886;2022-10-16T09:29:41;17.10;99.90
7792;DHT22;3940;49.892;10.886;2022-10-16T09:32:26;17.10;99.90
7792;DHT22;3940;49.892;10.886;2022-10-16T09:35:31;17.10;99.90
7792;DHT22;3940;49.892;10.886;2022-10-16T09:38:29;17.10;99.90
7792;DHT22;3940;49.892;10.886;2022-10-16T09:41:19;17.20;99.90
7792;DHT22;3940;49.892;10.886;2022-10-16T09:47:21;17.30;99.90
7792;DHT22;3940;49.892;10.886;2022-10-16T09:50:22;17.40;99.90
7792;DHT22;3940;49.892;10.886;2022-10-16T09:53:14;17.50;99.90
7792;DHT22;3940;49.892;10.886;2022-10-16T09:55:59;17.50;99.90
7792;DHT22;3940;49.892;10.886;2022-10-16T09:58:51;17.50;99.90
7792;DHT22;3940;49.892;10.886;2022-10-16T10:01:42;17.50;99.90
7792;DHT22;3940;49.892;10.886;2022-10-16T10:04:39;17.50;99.90
7792;DHT22;3940;49.892;10.886;2022-10-16T10:07:30;17.50;99.90
7792;DHT22;3940;49.892;10.886;2022-10-16T10:10:24;17.50;99.90
7792;DHT22;3940;49.892;10.886;2022-10-16T10:13:19;17.60;99.90
7792;DHT22;3940;49.892;10.886;2022-10-16T10:16:04;17.60;99.90
7792;DHT22;3940;49.892;10.886;2022-10-16T10:18:58;17.70;99.90
7792;DHT22;3940;49.892;10.886;2022-10-16T10:21:43;17.80;99.90
7792;DHT22;3940;49.892;10.886;2022-10-16T10:24:27;17.70;99.90
7792;DHT22;3940;49.892;10.886;2022-10-16T10:27:16;17.70;99.90
7792;DHT22;3940;49.892;10.886;2022-10-16T10:33:27;17.90;99.90
7792;DHT22;3940;49.892;10.886;2022-10-16T10:36:23;17.90;99.90
7792;DHT22;3940;49.892;10.886;2022-10-16T10:42:25;17.80;99.90
7792;DHT22;3940;49.892;10.886;2022-10-16T10:45:23;17.80;99.90
7792;DHT22;3940;49.892;10.886;2022-10-16T10:54:54;17.90;99.90
7792;DHT22;3940;49.892;10.886;2022-10-16T10:57:56;18.00;99.90
7792;DHT22;3940;49.892;10.886;2022-10-16T11:00:57;18.10;99.90
7792;DHT22;3940;49.892;10.886;2022-10-16T11:04:06;18.20;99.90
7792;DHT22;3940;49.892;10.886;2022-10-16T11:07:02;18.30;99.90
7792;DHT22;3940;49.892;10.886;2022-10-16T11:09:52;18.40;99.90
7792;DHT22;3940;49.892;10.886;2022-10-16T11:12:44;18.60;99.90
7792;DHT22;3940;49.892;10.886;2022-10-16T11:15:33;19.00;99.90
7792;DHT22;3940;49.892;10.886;2022-10-16T11:18:22;19.30;99.90
7792;DHT22;3940;49.892;10.886;2022-10-16T11:21:13;19.30;99.90
7792;DHT22;3940;49.892;10.886;2022-10-16T11:24:02;19.10;99.90
7792;DHT22;3940;49.892;10.886;2022-10-16T11:26:50;19.20;99.90
7792;DHT22;3940;49.892;10.886;2022-10-16T11:29:48;19.10;99.90
7792;DHT22;3940;49.892;10.886;2022-10-16T11:32:44;19.00;99.90
7792;DHT22;3940;49.892;10.886;2022-10-16T11:35:47;18.90;99.90
7792;DHT22;3940;49.892;10.886;2022-10-16T11:38:41;18.80;99.90
7792;DHT22;3940;49.892;10.886;2022-10-16T11:41:42;18.70;99.90
7792;DHT22;3940;49.892;10.886;2022-10-16T11:44:44;18.60;99.90
7792;DHT22;3940;49.892;10.886;2022-10-16T11:47:54;18.40;99.90
7792;DHT22;3940;49.892;10.886;2022-10-16T11:50:57;18.30;99.90
7792;DHT22;3940;49.892;10.886;2022-10-16T11:53:53;18.20;99.90
7792;DHT22;3940;49.892;10.886;2022-10-16T11:56:40;18.10;99.90
7792;DHT22;3940;49.892;10.886;2022-10-16T11:59:33;18.00;99.90
7792;DHT22;3940;49.892;10.886;2022-10-16T12:02:52;18.00;99.90
7792;DHT22;3940;49.892;10.886;2022-10-16T12:05:52;18.90;99.90
7792;DHT22;3940;49.892;10.886;2022-10-16T12:08:39;19.60;99.90
7792;DHT22;3940;49.892;10.886;2022-10-16T12:11:35;20.10;99.90
7792;DHT22;3940;49.892;10.886;2022-10-16T12:14:35;20.80;99.90
7792;DHT22;3940;49.892;10.886;2022-10-16T12:17:37;21.20;99.90
7792;DHT22;3940;49.892;10.886;2022-10-16T12:20:24;21.90;99.90
7792;DHT22;3940;49.892;10.886;2022-10-16T12:23:20;22.80;99.90
7792;DHT22;3940;49.892;10.886;2022-10-16T12:26:06;23.60;99.90
7792;DHT22;3940;49.892;10.886;2022-10-16T12:28:50;23.60;99.90
7792;DHT22;3940;49.892;10.886;2022-10-16T12:31:42;23.40;99.90
7792;DHT22;3940;49.892;10.886;2022-10-16T12:34:41;23.50;99.90
7792;DHT22;3940;49.892;10.886;2022-10-16T12:37:31;23.70;99.90
7792;DHT22;3940;49.892;10.886;2022-10-16T12:40:27;24.20;99.90
7792;DHT22;3940;49.892;10.886;2022-10-16T12:43:26;24.10;99.90
7792;DHT22;3940;49.892;10.886;2022-10-16T12:46:36;24.20;99.90
7792;DHT22;3940;49.892;10.886;2022-10-16T12:49:31;23.70;99.90
7792;DHT22;3940;49.892;10.886;2022-10-16T12:52:36;24.00;99.90
7792;DHT22;3940;49.892;10.886;2022-10-16T12:55:22;24.40;99.90
7792;DHT22;3940;49.892;10.886;2022-10-16T12:58:29;23.90;99.90
7792;DHT22;3940;49.892;10.886;2022-10-16T13:01:41;23.70;99.90
7792;DHT22;3940;49.892;10.886;2022-10-16T13:04:46;25.00;99.90
7792;DHT22;3940;49.892;10.886;2022-10-16T13:11:00;23.70;99.90
7792;DHT22;3940;49.892;10.886;2022-10-16T13:17:11;23.00;99.90
7792;DHT22;3940;49.892;10.886;2022-10-16T13:26:48;23.80;99.90
7792;DHT22;3940;49.892;10.886;2022-10-16T13:29:34;24.20;99.90
7792;DHT22;3940;49.892;10.886;2022-10-16T13:32:20;24.20;99.90
7792;DHT22;3940;49.892;10.886;2022-10-16T13:35:19;24.60;99.90
7792;DHT22;3940;49.892;10.886;2022-10-16T13:38:15;24.20;99.90
7792;DHT22;3940;49.892;10.886;2022-10-16T13:41:04;23.60;99.90
7792;DHT22;3940;49.892;10.886;2022-10-16T13:43:51;24.10;99.90
7792;DHT22;3940;49.892;10.886;2022-10-16T13:46:36;24.20;99.90
7792;DHT22;3940;49.892;10.886;2022-10-16T13:49:20;24.70;99.90
7792;DHT22;3940;49.892;10.886;2022-10-16T13:52:04;24.40;99.90
7792;DHT22;3940;49.892;10.886;2022-10-16T13:54:49;24.80;99.90
7792;DHT22;3940;49.892;10.886;2022-10-16T13:57:33;25.70;99.90
7792;DHT22;3940;49.892;10.886;2022-10-16T14:00:24;25.50;99.90
7792;DHT22;3940;49.892;10.886;2022-10-16T14:03:14;25.50;99.90
7792;DHT22;3940;49.892;10.886;2022-10-16T14:06:02;25.50;99.90
7792;DHT22;3940;49.892;10.886;2022-10-16T14:08:59;25.10;99.90
7792;DHT22;3940;49.892;10.886;2022-10-16T14:11:49;24.70;99.90
7792;DHT22;3940;49.892;10.886;2022-10-16T14:14:40;24.90;99.90
7792;DHT22;3940;49.892;10.886;2022-10-16T14:17:31;24.40;99.90
7792;DHT22;3940;49.892;10.886;2022-10-16T14:20:17;24.50;99.90
7792;DHT22;3940;49.892;10.886;2022-10-16T14:23:20;24.00;99.90
7792;DHT22;3940;49.892;10.886;2022-10-16T14:26:13;24.80;99.90
7792;DHT22;3940;49.892;10.886;2022-10-16T14:29:13;24.50;99.90
7792;DHT22;3940;49.892;10.886;2022-10-16T14:32:03;24.90;99.90
7792;DHT22;3940;49.892;10.886;2022-10-16T14:34:53;25.10;99.90
7792;DHT22;3940;49.892;10.886;2022-10-16T14:37:40;25.20;99.90
7792;DHT22;3940;49.892;10.886;2022-10-16T14:40:48;25.00;99.90
7792;DHT22;3940;49.892;10.886;2022-10-16T14:43:35;24.00;99.90
7792;DHT22;3940;49.892;10.886;2022-10-16T14:46:27;23.60;99.90
7792;DHT22;3940;49.892;10.886;2022-10-16T14:49:17;22.90;99.90
7792;DHT22;3940;49.892;10.886;2022-10-16T14:52:09;22.50;99.90
7792;DHT22;3940;49.892;10.886;2022-10-16T14:54:54;22.10;99.90
7792;DHT22;3940;49.892;10.886;2022-10-16T14:57:41;21.80;99.90
7792;DHT22;3940;49.892;10.886;2022-10-16T15:00:26;21.50;99.90
7792;DHT22;3940;49.892;10.886;2022-10-16T15:03:14;21.40;99.90
7792;DHT22;3940;49.892;10.886;2022-10-16T15:05:59;21.30;99.90
7792;DHT22;3940;49.892;10.886;2022-10-16T15:08:43;21.30;99.90
7792;DHT22;3940;49.892;10.886;2022-10-16T15:11:28;21.20;99.90
7792;DHT22;3940;49.892;10.886;2022-10-16T15:14:13;21.20;99.90
7792;DHT22;3940;49.892;10.886;2022-10-16T15:16:58;21.10;99.90
7792;DHT22;3940;49.892;10.886;2022-10-16T15:19:43;21.00;99.90
7792;DHT22;3940;49.892;10.886;2022-10-16T15:22:27;21.00;99.90
7792;DHT22;3940;49.892;10.886;2022-10-16T15:25:30;20.90;99.90
7792;DHT22;3940;49.892;10.886;2022-10-16T15:28:16;20.80;99.90
7792;DHT22;3940;49.892;10.886;2022-10-16T15:31:01;20.80;99.90
7792;DHT22;3940;49.892;10.886;2022-10-16T15:33:45;20.70;99.90
7792;DHT22;3940;49.892;10.886;2022-10-16T15:36:38;20.70;99.90
7792;DHT22;3940;49.892;10.886;2022-10-16T15:39:22;20.70;99.90
7792;DHT22;3940;49.892;10.886;2022-10-16T15:42:06;20.50;99.90
7792;DHT22;3940;49.892;10.886;2022-10-16T15:44:50;20.50;99.90
7792;DHT22;3940;49.892;10.886;2022-10-16T15:47:34;20.50;99.90
7792;DHT22;3940;49.892;10.886;2022-10-16T15:50:19;20.30;99.90
7792;DHT22;3940;49.892;10.886;2022-10-16T15:53:04;20.20;99.90
7792;DHT22;3940;49.892;10.886;2022-10-16T15:55:49;20.30;99.90
7792;DHT22;3940;49.892;10.886;2022-10-16T15:58:33;20.10;99.90
7792;DHT22;3940;49.892;10.886;2022-10-16T16:01:17;20.00;99.90
7792;DHT22;3940;49.892;10.886;2022-10-16T16:04:02;19.80;99.90
7792;DHT22;3940;49.892;10.886;2022-10-16T16:06:47;19.80;99.90
7792;DHT22;3940;49.892;10.886;2022-10-16T16:09:31;19.70;99.90
7792;DHT22;3940;49.892;10.886;2022-10-16T16:12:15;19.60;99.90
7792;DHT22;3940;49.892;10.886;2022-10-16T16:15:00;19.70;99.90
7792;DHT22;3940;49.892;10.886;2022-10-16T16:17:45;19.70;99.90
7792;DHT22;3940;49.892;10.886;2022-10-16T16:20:29;19.70;99.90
7792;DHT22;3940;49.892;10.886;2022-10-16T16:23:14;19.50;99.90
7792;DHT22;3940;49.892;10.886;2022-10-16T16:26:11;19.30;99.90
7792;DHT22;3940;49.892;10.886;2022-10-16T16:28:57;19.30;99.90
7792;DHT22;3940;49.892;10.886;2022-10-16T16:31:42;19.40;99.90
7792;DHT22;3940;49.892;10.886;2022-10-16T16:34:27;19.40;99.90
7792;DHT22;3940;49.892;10.886;2022-10-16T16:37:12;19.30;99.90
7792;DHT22;3940;49.892;10.886;2022-10-16T16:39:57;19.10;99.90
7792;DHT22;3940;49.892;10.886;2022-10-16T16:42:42;19.10;99.90
7792;DHT22;3940;49.892;10.886;2022-10-16T16:45:26;19.10;99.90
7792;DHT22;3940;49.892;10.886;2022-10-16T16:48:11;19.10;99.90
7792;DHT22;3940;49.892;10.886;2022-10-16T16:50:55;19.00;99.90
7792;DHT22;3940;49.892;10.886;2022-10-16T16:53:40;19.00;99.90
7792;DHT22;3940;49.892;10.886;2022-10-16T16:56:25;18.90;99.90
7792;DHT22;3940;49.892;10.886;2022-10-16T16:59:13;18.80;99.90
7792;DHT22;3940;49.892;10.886;2022-10-16T17:01:59;18.90;99.90
7792;DHT22;3940;49.892;10.886;2022-10-16T17:04:44;18.90;99.90
7792;DHT22;3940;49.892;10.886;2022-10-16T17:07:31;18.90;99.90
7792;DHT22;3940;49.892;10.886;2022-10-16T17:10:16;18.90;99.90
7792;DHT22;3940;49.892;10.886;2022-10-16T17:13:00;18.90;99.90
7792;DHT22;3940;49.892;10.886;2022-10-16T17:15:46;18.70;99.90
7792;DHT22;3940;49.892;10.886;2022-10-16T17:18:34;18.60;99.90
7792;DHT22;3940;49.892;10.886;2022-10-16T17:21:19;18.70;99.90
7792;DHT22;3940;49.892;10.886;2022-10-16T17:24:04;18.70;99.90
7792;DHT22;3940;49.892;10.886;2022-10-16T17:26:49;18.70;99.90
7792;DHT22;3940;49.892;10.886;2022-10-16T17:29:33;18.70;99.90
7792;DHT22;3940;49.892;10.886;2022-10-16T17:32:17;18.70;99.90
7792;DHT22;3940;49.892;10.886;2022-10-16T17:35:04;18.60;99.90
7792;DHT22;3940;49.892;10.886;2022-10-16T17:37:48;18.70;99.90
7792;DHT22;3940;49.892;10.886;2022-10-16T17:40:35;18.70;99.90
7792;DHT22;3940;49.892;10.886;2022-10-16T17:43:19;18.60;99.90
7792;DHT22;3940;49.892;10.886;2022-10-16T17:46:03;18.60;99.90
7792;DHT22;3940;49.892;10.886;2022-10-16T17:48:49;18.50;99.90
7792;DHT22;3940;49.892;10.886;2022-10-16T17:51:34;18.30;99.90
7792;DHT22;3940;49.892;10.886;2022-10-16T17:54:18;18.20;99.90
7792;DHT22;3940;49.892;10.886;2022-10-16T17:57:03;18.00;99.90
7792;DHT22;3940;49.892;10.886;2022-10-16T17:59:47;18.00;99.90
7792;DHT22;3940;49.892;10.886;2022-10-16T18:02:32;17.90;99.90
7792;DHT22;3940;49.892;10.886;2022-10-16T18:05:16;17.80;99.90
7792;DHT22;3940;49.892;10.886;2022-10-16T18:08:00;17.70;99.90
7792;DHT22;3940;49.892;10.886;2022-10-16T18:10:46;17.70;99.90
7792;DHT22;3940;49.892;10.886;2022-10-16T18:13:30;17.70;99.90
7792;DHT22;3940;49.892;10.886;2022-10-16T18:16:15;17.80;99.90
7792;DHT22;3940;49.892;10.886;2022-10-16T18:19:00;17.80;99.90
7792;DHT22;3940;49.892;10.886;2022-10-16T18:21:44;17.80;99.90
7792;DHT22;3940;49.892;10.886;2022-10-16T18:24:28;17.70;99.90
7792;DHT22;3940;49.892;10.886;2022-10-16T18:27:12;17.70;99.90
7792;DHT22;3940;49.892;10.886;2022-10-16T18:29:57;17.70;99.90